Sainte-Therese, Canada
Current Conditions -  °F | °C
As of 11:00 AM on Friday 31 Oct 2014 (Local Time) from CYMX Reporting Station
Scattered Clouds Scattered Clouds  
Wind Chill: 41°   Ceiling: Unl
Heat Index: 41°   Visibility: 45mi
Dew Point: 25°   Wind: 3mph
Humidity: 53%   Direction: 360°N
Pressure: 30.09"   Gusts: NA
Location:  45.63°N, 73.85°W
Report Text: CYMX 311500Z 36003KT 330V070 45SM FEW030 SCT150 SCT250 05/M04 A3009 RMK SC2AC1CI1 SLP192
Loading
Personal Weather Stations






























Interactive Weather Map
Tropical Storm Tracking
New forecast layout! Learn more

10-Day Weather Forecast

Advertisements
Track Severe Weather on mobile